sensor_id;sensor_type;location;lat;lon;timestamp;pressure;altitude;pressure_sealevel;temperature;humidity
60019;BME280;45870;42.528;26.740;2023-09-08T00:02:24;100058.03;;;22.79;44.68
60019;BME280;45870;42.528;26.740;2023-09-08T00:04:50;100063.94;;;22.86;44.08
60019;BME280;45870;42.528;26.740;2023-09-08T00:07:16;100068.00;;;22.75;44.24
60019;BME280;45870;42.528;26.740;2023-09-08T00:09:41;100055.75;;;23.09;43.31
60019;BME280;45870;42.528;26.740;2023-09-08T00:12:07;100059.97;;;22.79;43.69
60019;BME280;45870;42.528;26.740;2023-09-08T00:14:32;100055.78;;;22.81;43.78
60019;BME280;45870;42.528;26.740;2023-09-08T00:16:58;100049.81;;;23.15;43.07
60019;BME280;45870;42.528;26.740;2023-09-08T00:19:24;100054.03;;;22.72;43.64
60019;BME280;45870;42.528;26.740;2023-09-08T00:21:49;100054.44;;;23.06;42.95
60019;BME280;45870;42.528;26.740;2023-09-08T00:24:15;100057.84;;;23.39;41.94
60019;BME280;45870;42.528;26.740;2023-09-08T00:26:41;100056.88;;;23.21;42.39
60019;BME280;45870;42.528;26.740;2023-09-08T00:29:07;100056.88;;;23.08;42.86
60019;BME280;45870;42.528;26.740;2023-09-08T00:31:33;99998.25;;;22.66;43.00
60019;BME280;45870;42.528;26.740;2023-09-08T00:33:58;100068.00;;;22.89;43.29
60019;BME280;45870;42.528;26.740;2023-09-08T00:36:24;100071.16;;;22.69;43.82
60019;BME280;45870;42.528;26.740;2023-09-08T00:38:50;100068.59;;;23.13;42.97
60019;BME280;45870;42.528;26.740;2023-09-08T00:41:15;100068.91;;;22.98;43.05
60019;BME280;45870;42.528;26.740;2023-09-08T00:43:41;100061.84;;;22.51;43.92
60019;BME280;45870;42.528;26.740;2023-09-08T00:46:06;100015.22;;;22.14;43.84
60019;BME280;45870;42.528;26.740;2023-09-08T00:48:33;100054.13;;;22.67;43.69
60019;BME280;45870;42.528;26.740;2023-09-08T00:51:00;100060.44;;;22.95;42.80
60019;BME280;45870;42.528;26.740;2023-09-08T00:53:26;100035.34;;;23.10;42.14
60019;BME280;45870;42.528;26.740;2023-09-08T00:55:56;100067.22;;;23.38;41.76
60019;BME280;45870;42.528;26.740;2023-09-08T00:58:22;99910.16;;;22.44;41.94
60019;BME280;45870;42.528;26.740;2023-09-08T01:00:48;100059.88;;;23.33;41.95
60019;BME280;45870;42.528;26.740;2023-09-08T01:03:13;99997.44;;;22.52;42.76
60019;BME280;45870;42.528;26.740;2023-09-08T01:05:39;100052.19;;;23.22;42.09
60019;BME280;45870;42.528;26.740;2023-09-08T01:08:05;100060.34;;;23.13;42.58
60019;BME280;45870;42.528;26.740;2023-09-08T01:10:32;100051.84;;;23.23;42.10
60019;BME280;45870;42.528;26.740;2023-09-08T01:12:57;100057.75;;;23.30;41.96
60019;BME280;45870;42.528;26.740;2023-09-08T01:15:23;100051.56;;;22.98;42.84
60019;BME280;45870;42.528;26.740;2023-09-08T01:17:48;100058.31;;;23.05;42.65
60019;BME280;45870;42.528;26.740;2023-09-08T01:20:22;100045.25;;;23.11;42.24
60019;BME280;45870;42.528;26.740;2023-09-08T01:23:11;100058.91;;;23.43;41.66
60019;BME280;45870;42.528;26.740;2023-09-08T01:28:15;100051.59;;;23.11;42.75
60019;BME280;45870;42.528;26.740;2023-09-08T01:30:41;100033.00;;;23.17;42.30
60019;BME280;45870;42.528;26.740;2023-09-08T01:33:07;100050.97;;;23.14;42.66
60019;BME280;45870;42.528;26.740;2023-09-08T01:35:34;100036.16;;;23.24;42.38
60019;BME280;45870;42.528;26.740;2023-09-08T01:37:59;100048.44;;;23.40;42.18
60019;BME280;45870;42.528;26.740;2023-09-08T01:40:25;100041.31;;;22.89;43.50
60019;BME280;45870;42.528;26.740;2023-09-08T01:42:51;100015.75;;;22.29;44.43
60019;BME280;45870;42.528;26.740;2023-09-08T01:45:17;100032.94;;;22.67;44.00
60019;BME280;45870;42.528;26.740;2023-09-08T01:47:42;100031.06;;;22.63;44.04
60019;BME280;45870;42.528;26.740;2023-09-08T01:50:08;100034.00;;;21.74;45.87
60019;BME280;45870;42.528;26.740;2023-09-08T01:52:35;99864.19;;;21.12;45.35
60019;BME280;45870;42.528;26.740;2023-09-08T01:55:01;100027.19;;;21.90;46.12
60019;BME280;45870;42.528;26.740;2023-09-08T01:57:27;100022.69;;;22.27;44.96
60019;BME280;45870;42.528;26.740;2023-09-08T01:59:52;100031.47;;;21.78;46.13
60019;BME280;45870;42.528;26.740;2023-09-08T02:02:18;100019.03;;;21.99;45.68
60019;BME280;45870;42.528;26.740;2023-09-08T02:04:44;100033.31;;;21.82;45.89
60019;BME280;45870;42.528;26.740;2023-09-08T02:07:09;100023.25;;;22.10;45.48
60019;BME280;45870;42.528;26.740;2023-09-08T02:09:37;100026.16;;;22.32;44.91
60019;BME280;45870;42.528;26.740;2023-09-08T02:12:03;100023.16;;;22.15;45.37
60019;BME280;45870;42.528;26.740;2023-09-08T02:14:29;100020.31;;;22.20;45.12
60019;BME280;45870;42.528;26.740;2023-09-08T02:16:56;100002.66;;;21.94;45.44
60019;BME280;45870;42.528;26.740;2023-09-08T02:19:22;100001.38;;;22.05;45.52
60019;BME280;45870;42.528;26.740;2023-09-08T02:21:47;100015.28;;;22.55;44.30
60019;BME280;45870;42.528;26.740;2023-09-08T02:24:13;100008.06;;;22.86;43.57
60019;BME280;45870;42.528;26.740;2023-09-08T02:26:39;100021.38;;;23.06;43.15
60019;BME280;45870;42.528;26.740;2023-09-08T02:29:05;100022.03;;;23.39;42.20
60019;BME280;45870;42.528;26.740;2023-09-08T02:31:31;100026.56;;;23.21;42.62
60019;BME280;45870;42.528;26.740;2023-09-08T02:33:56;100032.78;;;23.27;42.26
60019;BME280;45870;42.528;26.740;2023-09-08T02:36:22;100030.59;;;23.37;42.21
60019;BME280;45870;42.528;26.740;2023-09-08T02:38:54;100014.59;;;23.26;42.40
60019;BME280;45870;42.528;26.740;2023-09-08T02:41:20;100033.28;;;23.15;42.61
60019;BME280;45870;42.528;26.740;2023-09-08T02:43:46;100019.66;;;23.10;42.52
60019;BME280;45870;42.528;26.740;2023-09-08T02:46:11;100029.09;;;23.31;42.18
60019;BME280;45870;42.528;26.740;2023-09-08T02:48:37;100026.41;;;22.77;43.32
60019;BME280;45870;42.528;26.740;2023-09-08T02:51:03;100028.44;;;22.85;43.10
60019;BME280;45870;42.528;26.740;2023-09-08T02:53:29;100034.69;;;22.31;44.51
60019;BME280;45870;42.528;26.740;2023-09-08T02:55:56;100021.78;;;22.45;44.04
60019;BME280;45870;42.528;26.740;2023-09-08T02:58:22;100028.56;;;22.20;44.72
60019;BME280;45870;42.528;26.740;2023-09-08T03:00:47;100019.09;;;22.13;44.80
60019;BME280;45870;42.528;26.740;2023-09-08T03:03:13;99977.53;;;21.82;45.07
60019;BME280;45870;42.528;26.740;2023-09-08T03:05:39;100020.44;;;22.29;44.69
60019;BME280;45870;42.528;26.740;2023-09-08T03:08:05;100020.06;;;22.63;43.66
60019;BME280;45870;42.528;26.740;2023-09-08T03:10:31;100024.34;;;23.10;42.57
60019;BME280;45870;42.528;26.740;2023-09-08T03:13:04;100023.25;;;22.70;43.55
60019;BME280;45870;42.528;26.740;2023-09-08T03:15:30;99989.72;;;22.81;42.85
60019;BME280;45870;42.528;26.740;2023-09-08T03:17:56;100011.63;;;23.00;42.58
60019;BME280;45870;42.528;26.740;2023-09-08T03:20:24;100022.59;;;22.59;43.78
60019;BME280;45870;42.528;26.740;2023-09-08T03:22:51;100031.88;;;22.63;43.54
60019;BME280;45870;42.528;26.740;2023-09-08T03:25:17;100028.63;;;23.02;43.14
60019;BME280;45870;42.528;26.740;2023-09-08T03:27:43;100029.16;;;22.90;42.83
60019;BME280;45870;42.528;26.740;2023-09-08T03:30:09;100014.81;;;23.43;42.06
60019;BME280;45870;42.528;26.740;2023-09-08T03:32:36;100034.09;;;23.43;41.96
60019;BME280;45870;42.528;26.740;2023-09-08T03:35:01;100038.03;;;22.87;43.21
60019;BME280;45870;42.528;26.740;2023-09-08T03:37:29;100035.69;;;22.21;44.99
60019;BME280;45870;42.528;26.740;2023-09-08T03:39:54;100025.28;;;22.78;43.61
60019;BME280;45870;42.528;26.740;2023-09-08T03:42:20;100028.44;;;22.85;43.61
60019;BME280;45870;42.528;26.740;2023-09-08T03:44:46;100027.84;;;22.74;43.70
60019;BME280;45870;42.528;26.740;2023-09-08T03:47:11;99958.63;;;22.26;43.63
60019;BME280;45870;42.528;26.740;2023-09-08T03:49:37;99997.91;;;22.73;43.57
60019;BME280;45870;42.528;26.740;2023-09-08T03:52:02;100036.91;;;22.75;43.94
60019;BME280;45870;42.528;26.740;2023-09-08T03:54:28;100038.44;;;22.81;43.58
60019;BME280;45870;42.528;26.740;2023-09-08T03:56:54;100040.69;;;22.93;43.36
60019;BME280;45870;42.528;26.740;2023-09-08T03:59:19;100028.81;;;23.19;42.52
60019;BME280;45870;42.528;26.740;2023-09-08T04:01:45;100035.06;;;23.11;43.28
60019;BME280;45870;42.528;26.740;2023-09-08T04:04:10;100026.03;;;23.47;42.16
60019;BME280;45870;42.528;26.740;2023-09-08T04:06:36;100028.97;;;23.50;42.09
60019;BME280;45870;42.528;26.740;2023-09-08T04:09:02;100034.84;;;23.21;42.84
60019;BME280;45870;42.528;26.740;2023-09-08T04:11:27;100026.81;;;23.47;42.22
60019;BME280;45870;42.528;26.740;2023-09-08T04:13:53;100017.13;;;23.50;42.17
60019;BME280;45870;42.528;26.740;2023-09-08T04:16:19;100017.56;;;23.43;42.38
60019;BME280;45870;42.528;26.740;2023-09-08T04:18:44;100035.69;;;23.80;41.73
60019;BME280;45870;42.528;26.740;2023-09-08T04:21:10;100032.59;;;24.57;40.10
60019;BME280;45870;42.528;26.740;2023-09-08T04:23:36;100043.56;;;25.44;38.99
60019;BME280;45870;42.528;26.740;2023-09-08T04:26:02;99996.50;;;26.39;36.20
60019;BME280;45870;42.528;26.740;2023-09-08T04:28:27;100038.47;;;26.87;35.82
60019;BME280;45870;42.528;26.740;2023-09-08T04:30:53;100040.75;;;27.14;35.27
60019;BME280;45870;42.528;26.740;2023-09-08T04:33:19;100009.00;;;27.33;34.49
60019;BME280;45870;42.528;26.740;2023-09-08T04:35:44;100054.22;;;28.40;33.42
60019;BME280;45870;42.528;26.740;2023-09-08T04:38:10;100048.66;;;28.85;32.42
60019;BME280;45870;42.528;26.740;2023-09-08T04:40:39;100039.81;;;29.84;31.30
60019;BME280;45870;42.528;26.740;2023-09-08T04:43:05;100052.19;;;29.46;31.63
60019;BME280;45870;42.528;26.740;2023-09-08T04:45:30;100057.09;;;28.76;33.41
60019;BME280;45870;42.528;26.740;2023-09-08T04:47:56;100057.97;;;27.91;34.70
60019;BME280;45870;42.528;26.740;2023-09-08T04:50:22;100028.00;;;27.51;35.65
60019;BME280;45870;42.528;26.740;2023-09-08T04:52:47;100032.28;;;27.40;35.61
60019;BME280;45870;42.528;26.740;2023-09-08T04:55:13;100047.81;;;26.74;37.06
60019;BME280;45870;42.528;26.740;2023-09-08T04:57:38;100041.84;;;26.55;37.24
60019;BME280;45870;42.528;26.740;2023-09-08T05:00:05;99997.09;;;26.53;37.49
60019;BME280;45870;42.528;26.740;2023-09-08T05:02:31;100030.84;;;26.84;37.68
60019;BME280;45870;42.528;26.740;2023-09-08T05:04:57;99986.47;;;26.55;37.53
60019;BME280;45870;42.528;26.740;2023-09-08T05:07:25;100050.75;;;26.05;39.97
60019;BME280;45870;42.528;26.740;2023-09-08T05:09:51;100025.69;;;26.57;38.69
60019;BME280;45870;42.528;26.740;2023-09-08T05:12:16;100009.91;;;25.33;40.01
60019;BME280;45870;42.528;26.740;2023-09-08T05:14:42;100023.09;;;26.98;37.05
60019;BME280;45870;42.528;26.740;2023-09-08T05:17:08;100043.25;;;28.44;35.59
60019;BME280;45870;42.528;26.740;2023-09-08T05:19:33;100039.50;;;27.95;35.68
60019;BME280;45870;42.528;26.740;2023-09-08T05:21:59;100035.34;;;28.21;35.54
60019;BME280;45870;42.528;26.740;2023-09-08T05:24:24;100037.06;;;29.07;34.23
60019;BME280;45870;42.528;26.740;2023-09-08T05:26:52;100015.75;;;28.75;35.21
60019;BME280;45870;42.528;26.740;2023-09-08T05:29:18;100006.53;;;28.71;35.07
60019;BME280;45870;42.528;26.740;2023-09-08T05:31:43;100035.88;;;27.61;36.76
60019;BME280;45870;42.528;26.740;2023-09-08T05:34:10;100044.22;;;29.20;35.29
60019;BME280;45870;42.528;26.740;2023-09-08T05:36:36;100040.59;;;28.35;35.64
60019;BME280;45870;42.528;26.740;2023-09-08T05:39:04;100033.19;;;27.53;36.97
60019;BME280;45870;42.528;26.740;2023-09-08T05:41:30;100029.78;;;28.21;36.01
60019;BME280;45870;42.528;26.740;2023-09-08T05:43:57;100032.66;;;29.06;34.42
60019;BME280;45870;42.528;26.740;2023-09-08T05:46:23;100038.91;;;29.15;33.24
60019;BME280;45870;42.528;26.740;2023-09-08T05:48:48;100039.97;;;28.17;34.58
60019;BME280;45870;42.528;26.740;2023-09-08T05:51:14;100039.63;;;27.98;34.89
60019;BME280;45870;42.528;26.740;2023-09-08T05:53:40;100050.41;;;28.77;33.87
60019;BME280;45870;42.528;26.740;2023-09-08T05:56:06;100020.25;;;29.04;32.01
60019;BME280;45870;42.528;26.740;2023-09-08T05:58:32;100050.84;;;29.80;31.62
60019;BME280;45870;42.528;26.740;2023-09-08T06:01:01;100054.88;;;29.18;32.73
60019;BME280;45870;42.528;26.740;2023-09-08T06:03:26;100039.59;;;29.00;32.54
60019;BME280;45870;42.528;26.740;2023-09-08T06:05:52;100054.59;;;29.60;31.87
60019;BME280;45870;42.528;26.740;2023-09-08T06:08:18;100048.41;;;29.91;30.83
60019;BME280;45870;42.528;26.740;2023-09-08T06:10:43;100037.78;;;29.68;31.88
60019;BME280;45870;42.528;26.740;2023-09-08T06:13:09;100067.09;;;30.06;30.87
60019;BME280;45870;42.528;26.740;2023-09-08T06:15:35;100058.22;;;30.44;31.02
60019;BME280;45870;42.528;26.740;2023-09-08T06:18:02;100067.06;;;32.16;28.57
60019;BME280;45870;42.528;26.740;2023-09-08T06:20:27;100073.47;;;32.17;28.12
60019;BME280;45870;42.528;26.740;2023-09-08T06:22:53;100076.97;;;30.03;30.90
60019;BME280;45870;42.528;26.740;2023-09-08T06:25:19;100040.53;;;29.16;32.07
60019;BME280;45870;42.528;26.740;2023-09-08T06:27:45;100084.13;;;31.07;29.77
60019;BME280;45870;42.528;26.740;2023-09-08T06:30:11;100081.78;;;30.18;30.80
60019;BME280;45870;42.528;26.740;2023-09-08T06:32:39;100069.94;;;31.12;29.02
60019;BME280;45870;42.528;26.740;2023-09-08T06:35:04;100089.78;;;30.79;30.48
60019;BME280;45870;42.528;26.740;2023-09-08T06:37:38;100087.94;;;30.99;28.97
60019;BME280;45870;42.528;26.740;2023-09-08T06:40:05;100088.16;;;30.62;29.46
60019;BME280;45870;42.528;26.740;2023-09-08T06:42:31;100088.81;;;30.00;30.78
60019;BME280;45870;42.528;26.740;2023-09-08T06:44:57;100053.47;;;30.44;29.65
60019;BME280;45870;42.528;26.740;2023-09-08T06:47:23;100069.09;;;30.49;30.26
60019;BME280;45870;42.528;26.740;2023-09-08T06:49:48;100084.94;;;30.76;29.68
60019;BME280;45870;42.528;26.740;2023-09-08T06:52:14;100038.41;;;30.33;29.56
60019;BME280;45870;42.528;26.740;2023-09-08T06:54:39;100080.25;;;30.49;30.56
60019;BME280;45870;42.528;26.740;2023-09-08T06:57:05;100071.44;;;30.19;30.70
60019;BME280;45870;42.528;26.740;2023-09-08T06:59:31;100080.50;;;31.92;28.94
60019;BME280;45870;42.528;26.740;2023-09-08T07:01:56;100079.66;;;30.71;30.12
60019;BME280;45870;42.528;26.740;2023-09-08T07:04:25;100088.78;;;32.88;28.04
60019;BME280;45870;42.528;26.740;2023-09-08T07:06:50;100087.59;;;32.05;28.29
60019;BME280;45870;42.528;26.740;2023-09-08T07:09:20;100083.19;;;32.88;27.34
60019;BME280;45870;42.528;26.740;2023-09-08T07:11:45;100065.97;;;31.83;28.62
60019;BME280;45870;42.528;26.740;2023-09-08T07:14:12;99960.97;;;30.54;28.86
60019;BME280;45870;42.528;26.740;2023-09-08T07:16:37;100040.38;;;32.84;26.82
60019;BME280;45870;42.528;26.740;2023-09-08T07:19:05;100070.31;;;31.45;29.08
60019;BME280;45870;42.528;26.740;2023-09-08T07:21:33;100090.50;;;32.31;28.57
60019;BME280;45870;42.528;26.740;2023-09-08T07:23:59;100080.78;;;32.63;28.50
60019;BME280;45870;42.528;26.740;2023-09-08T07:26:25;100071.41;;;32.75;27.29
60019;BME280;45870;42.528;26.740;2023-09-08T07:28:51;100082.34;;;31.49;29.73
60019;BME280;45870;42.528;26.740;2023-09-08T07:31:17;100085.41;;;30.35;30.87
60019;BME280;45870;42.528;26.740;2023-09-08T07:33:43;100087.38;;;30.34;30.92
60019;BME280;45870;42.528;26.740;2023-09-08T07:36:09;100085.19;;;31.34;29.87
60019;BME280;45870;42.528;26.740;2023-09-08T07:38:35;100071.75;;;31.39;30.19
60019;BME280;45870;42.528;26.740;2023-09-08T07:41:03;100056.69;;;32.36;27.98
60019;BME280;45870;42.528;26.740;2023-09-08T07:43:29;100080.28;;;31.81;29.12
60019;BME280;45870;42.528;26.740;2023-09-08T07:45:54;100079.31;;;33.19;28.02
60019;BME280;45870;42.528;26.740;2023-09-08T07:48:20;100077.91;;;32.41;29.45
60019;BME280;45870;42.528;26.740;2023-09-08T07:50:46;100085.84;;;32.81;28.40
60019;BME280;45870;42.528;26.740;2023-09-08T07:53:11;100069.94;;;32.20;28.63
60019;BME280;45870;42.528;26.740;2023-09-08T07:55:37;100069.97;;;32.43;28.07
60019;BME280;45870;42.528;26.740;2023-09-08T07:58:03;100077.34;;;32.74;27.81
60019;BME280;45870;42.528;26.740;2023-09-08T08:00:29;100076.94;;;33.73;27.12
60019;BME280;45870;42.528;26.740;2023-09-08T08:02:56;100079.28;;;32.92;27.67
60019;BME280;45870;42.528;26.740;2023-09-08T08:05:23;100068.75;;;31.83;28.69
60019;BME280;45870;42.528;26.740;2023-09-08T08:07:48;100070.75;;;33.34;27.00
60019;BME280;45870;42.528;26.740;2023-09-08T08:10:14;100015.31;;;32.64;28.32
60019;BME280;45870;42.528;26.740;2023-09-08T08:12:41;100069.13;;;32.84;27.22
60019;BME280;45870;42.528;26.740;2023-09-08T08:15:08;100060.91;;;32.69;26.61
60019;BME280;45870;42.528;26.740;2023-09-08T08:17:38;100063.38;;;32.74;27.64
60019;BME280;45870;42.528;26.740;2023-09-08T08:20:05;100067.69;;;32.48;27.50
60019;BME280;45870;42.528;26.740;2023-09-08T08:22:36;100061.22;;;33.65;26.27
60019;BME280;45870;42.528;26.740;2023-09-08T08:25:02;100065.25;;;33.15;26.58
60019;BME280;45870;42.528;26.740;2023-09-08T08:27:29;100072.94;;;34.07;25.89
60019;BME280;45870;42.528;26.740;2023-09-08T08:29:59;100051.38;;;33.78;25.11
60019;BME280;45870;42.528;26.740;2023-09-08T08:32:29;100059.31;;;33.17;25.65
60019;BME280;45870;42.528;26.740;2023-09-08T08:34:55;100052.75;;;32.60;26.23
60019;BME280;45870;42.528;26.740;2023-09-08T08:37:22;100059.06;;;33.55;25.42
60019;BME280;45870;42.528;26.740;2023-09-08T08:39:48;100053.47;;;32.80;26.52
60019;BME280;45870;42.528;26.740;2023-09-08T08:42:14;100022.00;;;32.60;26.93
60019;BME280;45870;42.528;26.740;2023-09-08T08:44:40;100054.91;;;32.70;27.42
60019;BME280;45870;42.528;26.740;2023-09-08T08:47:08;100019.44;;;32.74;27.16
60019;BME280;45870;42.528;26.740;2023-09-08T08:49:35;100029.34;;;33.47;25.98
60019;BME280;45870;42.528;26.740;2023-09-08T08:52:02;100051.78;;;33.77;25.99
60019;BME280;45870;42.528;26.740;2023-09-08T08:54:35;100060.31;;;34.21;24.87
60019;BME280;45870;42.528;26.740;2023-09-08T08:57:03;100045.66;;;33.68;25.24
60019;BME280;45870;42.528;26.740;2023-09-08T08:59:30;100009.50;;;31.35;28.71
60019;BME280;45870;42.528;26.740;2023-09-08T09:01:59;100033.66;;;32.88;26.82
60019;BME280;45870;42.528;26.740;2023-09-08T09:04:27;100054.06;;;32.05;28.17
60019;BME280;45870;42.528;26.740;2023-09-08T09:06:53;100030.97;;;32.95;26.40
60019;BME280;45870;42.528;26.740;2023-09-08T09:09:20;100042.81;;;31.28;29.01
60019;BME280;45870;42.528;26.740;2023-09-08T09:11:46;100014.53;;;30.79;29.85
60019;BME280;45870;42.528;26.740;2023-09-08T09:14:11;100033.06;;;32.11;29.39
60019;BME280;45870;42.528;26.740;2023-09-08T09:16:42;100039.56;;;32.83;27.56
60019;BME280;45870;42.528;26.740;2023-09-08T09:19:09;100032.03;;;31.46;28.82
60019;BME280;45870;42.528;26.740;2023-09-08T09:21:45;100030.09;;;31.85;30.05
60019;BME280;45870;42.528;26.740;2023-09-08T09:26:55;100030.78;;;31.78;28.62
60019;BME280;45870;42.528;26.740;2023-09-08T09:29:22;99988.69;;;32.29;27.29
60019;BME280;45870;42.528;26.740;2023-09-08T09:31:52;100004.53;;;30.94;29.34
60019;BME280;45870;42.528;26.740;2023-09-08T09:34:19;100033.31;;;32.90;28.27
60019;BME280;45870;42.528;26.740;2023-09-08T09:36:47;100006.47;;;32.40;27.13
60019;BME280;45870;42.528;26.740;2023-09-08T09:39:21;100024.88;;;32.22;27.51
60019;BME280;45870;42.528;26.740;2023-09-08T09:41:48;100010.84;;;31.99;27.17
60019;BME280;45870;42.528;26.740;2023-09-08T09:44:14;100025.34;;;32.69;26.29
60019;BME280;45870;42.528;26.740;2023-09-08T09:46:45;100020.88;;;31.61;28.38
60019;BME280;45870;42.528;26.740;2023-09-08T09:49:13;100004.34;;;31.91;27.17
60019;BME280;45870;42.528;26.740;2023-09-08T09:51:43;100018.84;;;31.08;28.29
60019;BME280;45870;42.528;26.740;2023-09-08T09:54:09;100013.25;;;32.19;27.77
60019;BME280;45870;42.528;26.740;2023-09-08T09:56:37;99996.06;;;33.38;25.89
60019;BME280;45870;42.528;26.740;2023-09-08T09:59:04;99948.91;;;30.82;28.11
60019;BME280;45870;42.528;26.740;2023-09-08T10:01:32;100018.06;;;32.00;28.03
60019;BME280;45870;42.528;26.740;2023-09-08T10:03:59;99974.44;;;31.34;27.61
60019;BME280;45870;42.528;26.740;2023-09-08T10:06:28;100023.00;;;32.97;26.52
60019;BME280;45870;42.528;26.740;2023-09-08T10:08:59;100027.38;;;31.88;27.47
60019;BME280;45870;42.528;26.740;2023-09-08T10:11:41;100016.53;;;31.64;27.91
60019;BME280;45870;42.528;26.740;2023-09-08T10:14:07;100039.69;;;31.84;28.35
60019;BME280;45870;42.528;26.740;2023-09-08T10:16:38;100020.88;;;31.27;29.18
60019;BME280;45870;42.528;26.740;2023-09-08T10:19:08;100033.97;;;31.42;28.52
60019;BME280;45870;42.528;26.740;2023-09-08T10:21:39;100036.44;;;31.28;29.94
60019;BME280;45870;42.528;26.740;2023-09-08T10:24:26;100055.63;;;30.51;30.83
60019;BME280;45870;42.528;26.740;2023-09-08T10:27:08;100045.03;;;31.03;30.58
60019;BME280;45870;42.528;26.740;2023-09-08T10:29:36;100053.03;;;30.73;31.07
60019;BME280;45870;42.528;26.740;2023-09-08T10:32:03;100039.59;;;31.61;31.03
60019;BME280;45870;42.528;26.740;2023-09-08T10:34:33;100002.94;;;32.01;29.40
60019;BME280;45870;42.528;26.740;2023-09-08T10:37:00;99934.63;;;31.76;29.10
60019;BME280;45870;42.528;26.740;2023-09-08T10:39:30;100040.19;;;31.35;32.48
60019;BME280;45870;42.528;26.740;2023-09-08T10:47:17;100006.34;;;30.23;33.17
60019;BME280;45870;42.528;26.740;2023-09-08T10:49:44;100040.25;;;30.88;33.75
60019;BME280;45870;42.528;26.740;2023-09-08T10:52:12;100053.47;;;30.91;33.67
60019;BME280;45870;42.528;26.740;2023-09-08T10:54:47;100053.78;;;31.37;32.65
60019;BME280;45870;42.528;26.740;2023-09-08T10:57:16;100048.19;;;31.91;33.44
60019;BME280;45870;42.528;26.740;2023-09-08T10:59:52;100057.78;;;31.20;34.61
60019;BME280;45870;42.528;26.740;2023-09-08T11:05:02;100056.81;;;30.97;34.07
60019;BME280;45870;42.528;26.740;2023-09-08T11:07:31;100059.75;;;30.13;34.73
60019;BME280;45870;42.528;26.740;2023-09-08T11:09:57;100048.44;;;30.06;35.14
60019;BME280;45870;42.528;26.740;2023-09-08T11:12:27;100052.13;;;30.10;35.37
60019;BME280;45870;42.528;26.740;2023-09-08T11:14:53;100045.03;;;31.03;33.14
60019;BME280;45870;42.528;26.740;2023-09-08T11:17:19;100045.47;;;30.74;33.54
60019;BME280;45870;42.528;26.740;2023-09-08T11:19:47;100032.94;;;31.15;34.15
60019;BME280;45870;42.528;26.740;2023-09-08T11:22:14;100021.25;;;30.31;33.90
60019;BME280;45870;42.528;26.740;2023-09-08T11:24:42;99987.28;;;29.82;34.31
60019;BME280;45870;42.528;26.740;2023-09-08T11:27:08;100030.78;;;30.30;34.25
60019;BME280;45870;42.528;26.740;2023-09-08T11:29:34;100009.69;;;29.86;34.84
60019;BME280;45870;42.528;26.740;2023-09-08T11:32:00;100024.75;;;30.28;33.35
60019;BME280;45870;42.528;26.740;2023-09-08T11:34:26;100005.66;;;29.71;34.21
60019;BME280;45870;42.528;26.740;2023-09-08T11:36:51;100018.25;;;30.67;32.87
60019;BME280;45870;42.528;26.740;2023-09-08T11:39:18;99994.53;;;31.43;32.09
60019;BME280;45870;42.528;26.740;2023-09-08T11:41:44;100002.91;;;31.24;31.25
60019;BME280;45870;42.528;26.740;2023-09-08T11:44:15;100011.22;;;30.73;31.11
60019;BME280;45870;42.528;26.740;2023-09-08T11:46:41;99923.44;;;30.48;30.58
60019;BME280;45870;42.528;26.740;2023-09-08T11:49:07;100001.34;;;31.61;30.60
60019;BME280;45870;42.528;26.740;2023-09-08T11:51:33;100000.63;;;32.48;29.72
60019;BME280;45870;42.528;26.740;2023-09-08T11:53:59;99993.00;;;32.68;27.34
60019;BME280;45870;42.528;26.740;2023-09-08T11:56:26;99987.75;;;31.79;29.72
60019;BME280;45870;42.528;26.740;2023-09-08T11:58:52;99995.84;;;32.49;29.65
60019;BME280;45870;42.528;26.740;2023-09-08T12:01:18;99996.31;;;32.09;29.72
60019;BME280;45870;42.528;26.740;2023-09-08T12:03:51;99967.16;;;31.49;29.80
60019;BME280;45870;42.528;26.740;2023-09-08T12:06:18;99954.00;;;31.49;28.03
60019;BME280;45870;42.528;26.740;2023-09-08T12:08:44;100002.34;;;31.18;29.84
60019;BME280;45870;42.528;26.740;2023-09-08T12:11:10;100001.38;;;32.03;29.73
60019;BME280;45870;42.528;26.740;2023-09-08T12:13:37;99990.66;;;31.48;30.92
60019;BME280;45870;42.528;26.740;2023-09-08T12:16:20;99885.78;;;30.23;31.67
60019;BME280;45870;42.528;26.740;2023-09-08T12:18:48;99996.66;;;30.80;32.55
60019;BME280;45870;42.528;26.740;2023-09-08T12:21:15;100007.38;;;30.62;32.82
60019;BME280;45870;42.528;26.740;2023-09-08T12:23:51;99947.22;;;30.61;31.09
60019;BME280;45870;42.528;26.740;2023-09-08T12:26:17;99964.28;;;31.26;31.09
60019;BME280;45870;42.528;26.740;2023-09-08T12:28:45;99992.59;;;31.28;31.81
60019;BME280;45870;42.528;26.740;2023-09-08T12:31:13;99995.84;;;31.30;31.92
60019;BME280;45870;42.528;26.740;2023-09-08T12:33:39;99990.03;;;31.54;30.47
60019;BME280;45870;42.528;26.740;2023-09-08T12:36:14;99984.22;;;32.47;29.67
60019;BME280;45870;42.528;26.740;2023-09-08T12:38:41;99987.47;;;31.49;30.72
60019;BME280;45870;42.528;26.740;2023-09-08T12:41:07;99985.94;;;30.98;30.67
60019;BME280;45870;42.528;26.740;2023-09-08T12:43:32;99988.41;;;30.68;31.23
60019;BME280;45870;42.528;26.740;2023-09-08T12:45:58;99990.53;;;30.90;32.78
60019;BME280;45870;42.528;26.740;2023-09-08T12:48:24;99986.00;;;31.52;32.17
60019;BME280;45870;42.528;26.740;2023-09-08T12:50:50;99963.44;;;31.80;32.54
60019;BME280;45870;42.528;26.740;2023-09-08T12:53:16;99977.16;;;32.07;31.71